.
WxDataArchive / Data Records for 2015-12-17
2015-12-16 December 2015 2015-12-18

Data Records for Thursday, 17 December 2015

Time	Temp	Chill	HIndex	Humid	Dewpt	 Wind 	HiWind	WindDir	Rain 	Barom
-----	----	-----	------	-----	-----	------	------	-------	-----	-----
00:00	42.1	39.7	42.1	67	31.9	4	8	270	0.00	29.699 
00:05	41.8	41.8	41.8	68	32.0	3	6	292	0.00	29.699 
00:10	41.6	41.6	41.6	69	32.2	3	5	270	0.00	29.699 
00:15	41.3	41.3	41.3	69	31.9	3	6	270	0.00	29.700 
00:20	41.1	41.1	41.1	70	32.1	2	5	248	0.00	29.700 
00:25	40.8	40.8	40.8	70	31.8	2	7	270	0.00	29.700 
00:30	40.3	40.3	40.3	70	31.3	3	5	248	0.00	29.710 
00:35	39.9	39.9	39.9	69	30.6	3	7	270	0.00	29.710 
00:40	39.6	39.6	39.6	68	29.9	3	7	248	0.00	29.710 
00:45	39.3	39.3	39.3	68	29.6	3	6	270	0.00	29.719 
00:50	38.9	38.9	38.9	68	29.3	3	7	270	0.00	29.719 
00:55	38.8	38.8	38.8	68	29.2	2	4	270	0.00	29.719 
01:00	38.3	38.3	38.3	68	28.7	2	5	270	0.00	29.720 
01:05	38.0	38.0	38.0	68	28.4	2	4	270	0.00	29.720 
01:10	37.8	37.8	37.8	69	28.6	2	7	270	0.00	29.720 
01:15	37.5	37.5	37.5	69	28.3	2	6	270	0.00	29.729 
01:20	37.2	37.2	37.2	69	28.0	1	6	292	0.00	29.729 
01:25	37.0	37.0	37.0	68	27.4	3	7	270	0.00	29.729 
01:30	36.8	36.8	36.8	68	27.2	2	5	248	0.00	29.732 
01:35	36.6	36.6	36.6	68	27.1	2	5	248	0.00	29.732 
01:40	36.5	36.5	36.5	68	27.0	1	3	248	0.00	29.732 
01:45	36.3	36.3	36.3	68	26.8	1	3	248	0.00	29.734 
01:50	36.2	36.2	36.2	68	26.7	1	5	270	0.00	29.734 
01:55	36.0	36.0	36.0	69	26.8	2	5	270	0.00	29.734 
02:00	35.9	35.9	35.9	69	26.7	1	3	270	0.00	29.737 
02:05	35.8	35.8	35.8	70	27.0	1	3	270	0.00	29.737 
02:10	35.6	35.6	35.6	71	27.1	0	2	270	0.00	29.737 
02:15	35.5	35.5	35.5	71	27.0	0	2	270	0.00	29.741 
02:20	35.3	35.3	35.3	71	26.9	0	2	270	0.00	29.741 
02:25	35.3	35.3	35.3	72	27.2	0	1	270	0.00	29.741 
02:30	35.2	35.2	35.2	73	27.4	0	2	270	0.00	29.743 
02:35	35.0	35.0	35.0	73	27.2	0	2	270	0.00	29.743 
02:40	34.9	34.9	34.9	73	27.1	0	2	270	0.00	29.743 
02:45	34.9	34.9	34.9	74	27.5	0	1	270	0.00	29.747 
02:50	34.7	34.7	34.7	74	27.3	0	3	270	0.00	29.747 
02:55	34.7	34.7	34.7	75	27.6	0	2	270	0.00	29.747 
03:00	34.6	34.6	34.6	75	27.5	0	1	270	0.00	29.752 
03:05	34.6	34.6	34.6	75	27.5	0	2	270	0.00	29.752 
03:10	34.9	34.9	34.9	75	27.8	0	1	270	0.00	29.752 
03:15	34.9	34.9	34.9	75	27.8	0	1	270	0.00	29.757 
03:20	35.0	35.0	35.0	75	27.9	0	1	270	0.00	29.757 
03:25	35.0	35.0	35.0	76	28.2	0	2	270	0.00	29.757 
03:30	35.2	35.2	35.2	76	28.4	0	3	270	0.00	29.755 
03:35	35.2	35.2	35.2	75	28.1	1	3	270	0.00	29.755 
03:40	35.3	35.3	35.3	75	28.2	0	1	270	0.00	29.755 
03:45	35.3	35.3	35.3	75	28.2	0	2	270	0.00	29.753 
03:50	35.3	35.3	35.3	74	27.9	1	3	270	0.00	29.753 
03:55	35.3	35.3	35.3	74	27.9	0	2	270	0.00	29.753 
04:00	35.3	35.3	35.3	74	27.9	1	5	270	0.00	29.752 
04:05	35.3	35.3	35.3	73	27.5	0	2	248	0.00	29.752 
04:10	35.2	35.2	35.2	73	27.4	0	2	248	0.00	29.752 
04:15	35.2	35.2	35.2	73	27.4	0	2	248	0.00	29.754 
04:20	35.2	35.2	35.2	74	27.8	0	2	248	0.00	29.754 
04:25	35.2	35.2	35.2	74	27.8	0	1	248	0.00	29.754 
04:30	35.0	35.0	35.0	75	27.9	0	2	248	0.00	29.757 
04:35	35.0	35.0	35.0	75	27.9	0	1	248	0.00	29.757 
04:40	35.0	35.0	35.0	75	27.9	0	2	248	0.00	29.757 
04:45	35.2	35.2	35.2	75	28.1	0	2	248	0.00	29.758 
04:50	35.2	35.2	35.2	75	28.1	0	2	248	0.00	29.758 
04:55	35.2	35.2	35.2	75	28.1	0	3	248	0.00	29.758 
05:00	35.2	35.2	35.2	75	28.1	0	1	248	0.00	29.758 
05:05	35.2	35.2	35.2	75	28.1	0	2	248	0.00	29.758 
05:10	35.0	35.0	35.0	75	27.9	1	3	248	0.00	29.758 
05:15	35.0	35.0	35.0	75	27.9	1	3	248	0.00	29.754 
05:20	35.0	35.0	35.0	75	27.9	1	4	248	0.00	29.754 
05:25	35.0	35.0	35.0	75	27.9	0	2	248	0.00	29.754 
05:30	34.9	34.9	34.9	75	27.8	1	3	248	0.00	29.749 
05:35	34.9	34.9	34.9	75	27.8	1	5	248	0.00	29.749 
05:40	34.9	34.9	34.9	75	27.8	0	3	248	0.00	29.749 
05:45	34.9	34.9	34.9	75	27.8	0	2	248	0.00	29.751 
05:50	34.9	34.9	34.9	75	27.8	0	4	248	0.00	29.751 
05:55	34.7	34.7	34.7	75	27.6	0	2	248	0.00	29.751 
06:00	34.7	34.7	34.7	75	27.6	1	3	248	0.00	29.752 
06:05	34.7	34.7	34.7	75	27.6	0	3	248	0.00	29.752 
06:10	34.7	34.7	34.7	74	27.3	1	2	248	0.00	29.752 
06:15	34.7	34.7	34.7	73	26.9	0	2	248	0.00	29.761 
06:20	34.6	34.6	34.6	73	26.9	1	4	248	0.00	29.761 
06:25	34.6	34.6	34.6	73	26.9	0	3	248	0.00	29.761 
06:30	34.4	34.4	34.4	72	26.3	0	3	248	0.00	29.765 
06:35	34.4	34.4	34.4	72	26.3	0	2	248	0.00	29.765 
06:40	34.4	34.4	34.4	71	26.0	0	2	248	0.00	29.765 
06:45	34.4	34.4	34.4	71	26.0	0	3	248	0.00	29.770 
06:50	34.4	34.4	34.4	70	25.6	0	2	248	0.00	29.770 
06:55	34.4	34.4	34.4	70	25.6	0	2	248	0.00	29.770 
07:00	34.4	34.4	34.4	71	26.0	0	2	248	0.00	29.773 
07:05	34.4	34.4	34.4	71	26.0	0	2	248	0.00	29.773 
07:10	34.6	34.6	34.6	72	26.5	0	2	248	0.00	29.773 
07:15	34.6	34.6	34.6	73	26.9	0	3	248	0.00	29.773 
07:20	34.6	34.6	34.6	73	26.9	0	2	248	0.00	29.773 
07:25	34.6	34.6	34.6	73	26.9	0	3	248	0.00	29.773 
07:30	34.6	34.6	34.6	73	26.9	0	2	248	0.00	29.775 
07:35	34.6	34.6	34.6	73	26.9	0	2	248	0.00	29.775 
07:40	34.4	34.4	34.4	73	26.7	0	1	248	0.00	29.775 
07:45	34.4	34.4	34.4	74	27.0	1	3	248	0.00	29.774 
07:50	34.4	34.4	34.4	74	27.0	0	3	248	0.00	29.774 
07:55	34.4	34.4	34.4	75	27.3	0	3	248	0.00	29.774 
08:00	34.4	34.4	34.4	76	27.6	0	2	248	0.00	29.778 
08:05	34.4	34.4	34.4	77	27.9	0	1	248	0.00	29.778 
08:10	34.3	34.3	34.3	77	27.9	0	2	248	0.00	29.778 
08:15	34.3	34.3	34.3	77	27.9	0	1	248	0.00	29.781 
08:20	34.3	34.3	34.3	78	28.2	0	1	248	0.00	29.781 
08:25	34.3	34.3	34.3	78	28.2	0	1	248	0.00	29.781 
08:30	34.3	34.3	34.3	78	28.2	0	1	248	0.00	29.787 
08:35	34.3	34.3	34.3	79	28.5	0	1	248	0.00	29.787 
08:40	34.3	34.3	34.3	79	28.5	0	2	248	0.00	29.787 
08:45	34.3	34.3	34.3	77	27.9	1	4	248	0.00	29.793 
08:50	34.1	34.1	34.1	75	27.0	1	5	248	0.00	29.793 
08:55	34.1	34.1	34.1	73	26.4	1	3	315	0.00	29.793 
09:00	34.1	34.1	34.1	72	26.0	1	3	315	0.00	29.799 
09:05	34.1	34.1	34.1	72	26.0	0	3	315	0.00	29.799 
09:10	34.0	34.0	34.0	72	25.9	1	5	292	0.00	29.799 
09:15	33.7	33.7	33.7	71	25.3	2	4	270	0.00	29.806 
09:20	33.5	33.5	33.5	71	25.1	2	4	270	0.00	29.806 
09:25	33.4	33.4	33.4	72	25.4	0	3	292	0.00	29.806 
09:30	33.2	33.2	33.2	71	24.8	0	3	292	0.00	29.817 
09:35	33.2	33.2	33.2	71	24.8	1	5	292	0.00	29.817 
09:40	33.1	33.1	33.1	71	24.7	2	4	248	0.00	29.817 
09:45	32.9	32.9	32.9	70	24.2	3	6	270	0.00	29.818 
09:50	32.9	32.9	32.9	70	24.2	3	6	292	0.00	29.818 
09:55	32.9	32.9	32.9	71	24.5	3	11	292	0.00	29.818 
10:00	32.9	32.9	32.9	71	24.5	2	5	270	0.00	29.819 
10:05	32.9	32.9	32.9	71	24.5	2	5	292	0.00	29.819 
10:10	32.9	32.9	32.9	70	24.2	2	4	292	0.00	29.819 
10:15	33.1	33.1	33.1	70	24.4	2	5	270	0.00	29.827 
10:20	33.1	33.1	33.1	70	24.4	2	4	292	0.00	29.827 
10:25	33.1	33.1	33.1	70	24.4	3	5	270	0.00	29.827 
10:30	33.1	33.1	33.1	70	24.4	1	3	270	0.00	29.835 
10:35	33.2	33.2	33.2	70	24.5	2	4	270	0.00	29.835 
10:40	33.2	33.2	33.2	70	24.5	2	4	270	0.00	29.835 
10:45	33.4	33.4	33.4	70	24.7	2	9	248	0.00	29.837 
10:50	33.4	33.4	33.4	69	24.3	2	5	270	0.00	29.837 
10:55	33.4	33.4	33.4	69	24.3	3	6	270	0.00	29.837 
11:00	33.4	33.4	33.4	69	24.3	3	6	270	0.00	29.849 
11:05	33.4	33.4	33.4	69	24.3	2	6	292	0.00	29.849 
11:10	33.5	33.5	33.5	70	24.8	2	4	270	0.00	29.849 
11:15	33.5	33.5	33.5	70	24.8	2	4	270	0.00	29.853 
11:20	33.5	33.5	33.5	71	25.1	1	4	248	0.00	29.853 
11:25	33.4	33.4	33.4	70	24.7	2	5	292	0.00	29.853 
11:30	33.1	33.1	33.1	69	24.1	2	6	292	0.00	29.856 
11:35	32.9	29.1	32.9	69	23.9	4	7	270	0.00	29.856 
11:40	32.7	28.9	32.7	69	23.7	4	6	270	0.00	29.856 
11:45	32.7	32.7	32.7	69	23.7	2	5	270	0.00	29.855 
11:50	32.7	32.7	32.7	69	23.7	2	4	270	0.00	29.855 
11:55	32.5	32.5	32.5	69	23.5	3	6	270	0.00	29.855 
12:00	32.5	32.5	32.5	69	23.5	3	7	292	0.00	29.855 
12:05	32.5	32.5	32.5	70	23.8	3	7	315	0.00	29.855 
12:10	32.5	32.5	32.5	69	23.5	3	5	270	0.00	29.855 
12:15	32.5	32.5	32.5	69	23.5	3	5	270	0.00	29.861 
12:20	32.7	32.7	32.7	70	24.0	2	4	292	0.00	29.861 
12:25	32.8	32.8	32.8	70	24.1	1	6	338	0.00	29.861 
12:30	32.8	32.8	32.8	69	23.8	3	6	270	0.00	29.862 
12:35	32.9	32.9	32.9	69	23.9	2	5	270	0.00	29.862 
12:40	32.9	32.9	32.9	69	23.9	2	4	270	0.00	29.862 
12:45	32.9	32.9	32.9	69	23.9	1	3	270	0.00	29.861 
12:50	33.1	33.1	33.1	70	24.4	0	2	248	0.00	29.861 
12:55	33.2	33.2	33.2	69	24.2	1	2	248	0.00	29.861 
13:00	33.2	33.2	33.2	69	24.2	1	3	248	0.00	29.860 
13:05	33.2	33.2	33.2	69	24.2	1	4	248	0.00	29.860 
13:10	33.2	33.2	33.2	70	24.5	0	5	315	0.00	29.860 
13:15	33.4	33.4	33.4	70	24.7	0	1	315	0.00	29.858 
13:20	33.5	33.5	33.5	70	24.8	1	3	315	0.00	29.858 
13:25	33.4	33.4	33.4	70	24.7	2	4	270	0.00	29.858 
13:30	33.4	33.4	33.4	71	25.0	1	4	270	0.00	29.860 
13:35	33.2	33.2	33.2	71	24.8	2	4	270	0.00	29.860 
13:40	33.2	33.2	33.2	72	25.2	1	3	270	0.00	29.860 
13:45	33.1	33.1	33.1	72	25.1	1	4	248	0.00	29.860 
13:50	32.9	32.9	32.9	72	24.9	2	4	270	0.00	29.860 
13:55	32.8	32.8	32.8	72	24.8	2	7	292	0.00	29.860 
14:00	32.7	32.7	32.7	73	25.0	2	5	292	0.00	29.861 
14:05	32.7	32.7	32.7	73	25.0	1	3	292	0.00	29.861 
14:10	32.7	32.7	32.7	73	25.0	1	9	292	0.00	29.861 
14:15	32.5	32.5	32.5	71	24.2	3	5	270	0.00	29.862 
14:20	32.4	32.4	32.4	71	24.1	2	5	292	0.00	29.862 
14:25	32.5	32.5	32.5	71	24.2	0	2	248	0.00	29.862 
14:30	32.5	32.5	32.5	71	24.2	1	3	248	0.00	29.860 
14:35	32.5	32.5	32.5	71	24.2	1	3	248	0.00	29.860 
14:40	32.4	32.4	32.4	70	23.7	2	4	248	0.00	29.860 
14:45	32.2	32.2	32.2	70	23.5	1	4	248	0.00	29.861 
14:50	32.2	32.2	32.2	69	23.2	2	5	292	0.00	29.861 
14:55	32.2	32.2	32.2	69	23.2	1	2	292	0.00	29.861 
15:00	32.4	32.4	32.4	70	23.7	0	2	292	0.00	29.859 
15:05	32.4	32.4	32.4	69	23.4	1	4	292	0.00	29.859 
15:10	32.4	32.4	32.4	69	23.4	1	3	270	0.00	29.859 
15:15	32.2	32.2	32.2	69	23.2	1	3	270	0.00	29.863 
15:20	32.2	32.2	32.2	69	23.2	0	2	270	0.00	29.863 
15:25	32.4	32.4	32.4	70	23.7	1	3	270	0.00	29.863 
15:30	32.4	32.4	32.4	70	23.7	1	3	270	0.00	29.865 
15:35	32.2	32.2	32.2	71	23.9	1	3	270	0.00	29.865 
15:40	32.2	32.2	32.2	70	23.5	1	4	270	0.00	29.865 
15:45	32.2	32.2	32.2	70	23.5	2	4	270	0.00	29.876 
15:50	32.2	32.2	32.2	71	23.9	1	3	270	0.00	29.876 
15:55	32.1	32.1	32.1	71	23.8	2	4	292	0.00	29.876 
16:00	32.1	32.1	32.1	72	24.1	1	4	292	0.00	29.881 
16:05	32.1	32.1	32.1	72	24.1	1	4	270	0.00	29.881 
16:10	31.9	31.9	31.9	70	23.2	2	5	270	0.00	29.881 
16:15	31.9	31.9	31.9	69	22.9	2	6	270	0.00	29.885 
16:20	31.9	31.9	31.9	68	22.6	2	4	270	0.00	29.885 
16:25	31.8	31.8	31.8	68	22.5	1	3	270	0.00	29.885 
16:30	31.9	31.9	31.9	68	22.6	0	3	270	0.00	29.891 
16:35	31.8	31.8	31.8	68	22.5	2	5	270	0.00	29.891 
16:40	31.8	31.8	31.8	68	22.5	1	3	270	0.00	29.891 
16:45	31.9	31.9	31.9	68	22.6	1	3	270	0.00	29.898 
16:50	31.9	31.9	31.9	67	22.2	2	4	270	0.00	29.898 
16:55	31.9	31.9	31.9	68	22.6	1	3	270	0.00	29.898 
17:00	31.9	31.9	31.9	67	22.2	1	3	270	0.00	29.899 
17:05	31.9	31.9	31.9	67	22.2	1	3	270	0.00	29.899 
17:10	31.9	31.9	31.9	68	22.6	0	1	270	0.00	29.899 
17:15	31.9	31.9	31.9	68	22.6	1	3	270	0.00	29.904 
17:20	31.9	31.9	31.9	68	22.6	1	4	270	0.00	29.904 
17:25	31.9	31.9	31.9	68	22.6	1	4	270	0.00	29.904 
17:30	32.1	32.1	32.1	68	22.7	0	1	270	0.00	29.912 
17:35	32.1	32.1	32.1	69	23.1	1	3	270	0.00	29.912 
17:40	32.1	32.1	32.1	69	23.1	1	4	292	0.00	29.912 
17:45	32.1	32.1	32.1	69	23.1	1	3	292	0.00	29.924 
17:50	32.1	32.1	32.1	68	22.7	1	2	292	0.00	29.924 
17:55	32.1	32.1	32.1	68	22.7	1	5	292	0.00	29.924 
18:00	32.1	32.1	32.1	68	22.7	0	2	292	0.00	29.921 
18:05	31.9	31.9	31.9	67	22.2	1	3	292	0.00	29.921 
18:10	31.9	31.9	31.9	67	22.2	0	2	292	0.00	29.921 
18:15	31.9	31.9	31.9	67	22.2	0	3	292	0.00	29.915 
18:20	31.9	31.9	31.9	67	22.2	1	4	338	0.00	29.915 
18:25	31.9	31.9	31.9	67	22.2	1	2	315	0.00	29.915 
18:30	31.9	31.9	31.9	67	22.2	1	3	315	0.00	29.920 
18:35	31.9	31.9	31.9	68	22.6	0	2	315	0.00	29.920 
18:40	31.9	31.9	31.9	68	22.6	1	3	292	0.00	29.920 
18:45	31.9	31.9	31.9	68	22.6	1	3	292	0.00	29.925 
18:50	31.9	31.9	31.9	68	22.6	1	3	292	0.00	29.925 
18:55	31.9	31.9	31.9	67	22.2	1	3	248	0.00	29.925 
19:00	31.9	31.9	31.9	67	22.2	1	3	248	0.00	29.926 
19:05	31.9	31.9	31.9	66	21.9	1	3	248	0.00	29.926 
19:10	31.9	31.9	31.9	66	21.9	0	3	248	0.00	29.926 
19:15	31.9	31.9	31.9	66	21.9	1	3	248	0.00	29.928 
19:20	31.9	31.9	31.9	66	21.9	0	3	248	0.00	29.928 
19:25	31.9	31.9	31.9	66	21.9	0	1	248	0.00	29.928 
19:30	31.9	31.9	31.9	65	21.5	0	2	248	0.00	29.928 
19:35	31.9	31.9	31.9	65	21.5	1	3	248	0.00	29.928 
19:40	31.9	31.9	31.9	65	21.5	0	2	248	0.00	29.928 
19:45	31.9	31.9	31.9	65	21.5	0	2	248	0.00	29.933 
19:50	31.9	31.9	31.9	64	21.1	1	3	248	0.00	29.933 
19:55	32.1	32.1	32.1	64	21.3	1	3	248	0.00	29.933 
20:00	32.1	32.1	32.1	64	21.3	0	1	248	0.00	29.938 
20:05	32.1	32.1	32.1	64	21.3	0	2	248	0.00	29.938 
20:10	32.1	32.1	32.1	64	21.3	0	1	248	0.00	29.938 
20:15	32.1	32.1	32.1	65	21.7	0	2	248	0.00	29.940 
20:20	32.1	32.1	32.1	65	21.7	0	1	248	0.00	29.940 
20:25	32.1	32.1	32.1	65	21.7	0	2	248	0.00	29.940 
20:30	32.1	32.1	32.1	65	21.7	0	2	248	0.00	29.938 
20:35	32.1	32.1	32.1	66	22.0	0	1	248	0.00	29.938 
20:40	32.1	32.1	32.1	66	22.0	0	1	248	0.00	29.938 
20:45	32.1	32.1	32.1	65	21.7	0	1	248	0.00	29.942 
20:50	32.1	32.1	32.1	66	22.0	0	1	248	0.00	29.942 
20:55	32.1	32.1	32.1	66	22.0	0	1	248	0.00	29.942 
21:00	32.1	32.1	32.1	66	22.0	0	1	248	0.00	29.944 
21:05	32.1	32.1	32.1	65	21.7	0	1	248	0.00	29.944 
21:10	32.2	32.2	32.2	65	21.8	0	1	248	0.00	29.944 
21:15	32.2	32.2	32.2	65	21.8	0	2	248	0.00	29.948 
21:20	32.2	32.2	32.2	64	21.4	0	1	248	0.00	29.948 
21:25	32.2	32.2	32.2	64	21.4	0	2	248	0.00	29.948 
21:30	32.4	32.4	32.4	63	21.2	0	2	248	0.00	29.951 
21:35	32.4	32.4	32.4	63	21.2	0	1	248	0.00	29.951 
21:40	32.4	32.4	32.4	63	21.2	0	1	248	0.00	29.951 
21:45	32.4	32.4	32.4	63	21.2	0	1	248	0.00	29.952 
21:50	32.2	32.2	32.2	62	20.7	0	1	248	0.00	29.952 
21:55	32.2	32.2	32.2	62	20.7	0	1	248	0.00	29.952 
22:00	32.2	32.2	32.2	62	20.7	0	1	248	0.00	29.956 
22:05	32.2	32.2	32.2	63	21.0	0	1	248	0.00	29.956 
22:10	32.2	32.2	32.2	62	20.7	0	1	248	0.00	29.956 
22:15	32.2	32.2	32.2	62	20.7	0	1	248	0.00	29.954 
22:20	32.2	32.2	32.2	62	20.7	0	1	248	0.00	29.954 
22:25	32.2	32.2	32.2	63	21.0	0	1	248	0.00	29.954 
22:30	32.2	32.2	32.2	63	21.0	0	1	248	0.00	29.949 
22:35	32.2	32.2	32.2	63	21.0	0	2	248	0.00	29.949 
22:40	32.2	32.2	32.2	63	21.0	0	1	248	0.00	29.949 
22:45	32.2	32.2	32.2	63	21.0	0	1	248	0.00	29.951 
22:50	32.2	32.2	32.2	64	21.4	0	1	248	0.00	29.951 
22:55	32.1	32.1	32.1	63	20.9	0	1	248	0.00	29.951 
23:00	32.1	32.1	32.1	63	20.9	0	1	248	0.00	29.953 
23:05	32.1	32.1	32.1	63	20.9	0	1	248	0.00	29.953 
23:10	32.1	32.1	32.1	63	20.9	0	2	248	0.00	29.953 
23:15	32.1	32.1	32.1	63	20.9	0	1	248	0.00	29.956 
23:20	31.9	31.9	31.9	63	20.8	0	1	248	0.00	29.956 
23:25	31.9	31.9	31.9	63	20.8	0	2	248	0.00	29.956 
23:30	31.9	31.9	31.9	62	20.4	0	2	248	0.00	29.958 
23:35	31.8	31.8	31.8	62	20.3	0	2	248	0.00	29.958 
23:40	31.8	31.8	31.8	62	20.3	0	3	248	0.00	29.958 
23:45	31.8	31.8	31.8	62	20.3	0	2	248	0.00	29.960 
23:50	31.8	31.8	31.8	62	20.3	0	1	248	0.00	29.960 
23:55	31.6	31.6	31.6	62	20.1	0	1	248	0.00	29.960 

CoCoRaHS
IN-AL-39
A2 Web Hosting
Creative Commons License
GoDaddy
search engine by freefind advanced

loaded 2018-11-13 21:17:44 • last modified 2010-11-18 10:43:29
Privacy PolicyDisclaimer
• wx.awcolley.com is powered by PmWiki v.2002016 •
• all content (unless otherwise noted) © 2018 A W Colley